sensor_id;sensor_type;location;lat;lon;timestamp;pressure;altitude;pressure_sealevel;temperature;humidity
70730;BME280;58315;53.336;55.932;2023-03-04T00:01:06;99090.84;;;1.64;55.76
70730;BME280;58315;53.336;55.932;2023-03-04T00:03:32;99099.06;;;1.58;56.01
70730;BME280;58315;53.336;55.932;2023-03-04T00:05:58;99100.25;;;1.52;56.17
70730;BME280;58315;53.336;55.932;2023-03-04T00:08:24;99092.56;;;1.51;55.97
70730;BME280;58315;53.336;55.932;2023-03-04T00:10:50;99090.31;;;1.44;56.25
70730;BME280;58315;53.336;55.932;2023-03-04T00:13:16;99097.00;;;1.49;56.39
70730;BME280;58315;53.336;55.932;2023-03-04T00:15:43;99088.25;;;1.50;56.31
70730;BME280;58315;53.336;55.932;2023-03-04T00:18:09;99099.41;;;1.52;56.30
70730;BME280;58315;53.336;55.932;2023-03-04T00:20:34;99092.44;;;1.52;56.38
70730;BME280;58315;53.336;55.932;2023-03-04T00:23:01;99102.50;;;1.58;56.32
70730;BME280;58315;53.336;55.932;2023-03-04T00:25:26;99097.53;;;1.68;56.29
70730;BME280;58315;53.336;55.932;2023-03-04T00:27:52;99103.69;;;1.67;56.14
70730;BME280;58315;53.336;55.932;2023-03-04T00:30:18;99098.66;;;1.64;56.73
70730;BME280;58315;53.336;55.932;2023-03-04T00:32:44;99101.72;;;1.71;56.42
70730;BME280;58315;53.336;55.932;2023-03-04T00:35:10;99102.97;;;1.65;56.80
70730;BME280;58315;53.336;55.932;2023-03-04T00:37:36;99107.78;;;1.71;56.50
70730;BME280;58315;53.336;55.932;2023-03-04T00:40:02;99107.97;;;1.68;56.33
70730;BME280;58315;53.336;55.932;2023-03-04T00:42:31;99105.28;;;1.69;56.74
70730;BME280;58315;53.336;55.932;2023-03-04T00:44:57;99101.44;;;1.61;57.07
70730;BME280;58315;53.336;55.932;2023-03-04T00:47:23;99105.09;;;1.58;57.67
70730;BME280;58315;53.336;55.932;2023-03-04T00:49:49;99101.25;;;1.64;57.62
70730;BME280;58315;53.336;55.932;2023-03-04T00:52:16;99102.97;;;1.65;57.80
70730;BME280;58315;53.336;55.932;2023-03-04T00:54:42;99095.59;;;1.72;57.71
70730;BME280;58315;53.336;55.932;2023-03-04T00:57:08;99104.69;;;1.79;57.77
70730;BME280;58315;53.336;55.932;2023-03-04T00:59:34;99105.63;;;1.78;57.87
70730;BME280;58315;53.336;55.932;2023-03-04T01:02:00;99103.69;;;1.81;57.78
70730;BME280;58315;53.336;55.932;2023-03-04T01:04:25;99108.34;;;1.90;57.57
70730;BME280;58315;53.336;55.932;2023-03-04T01:06:52;99107.56;;;1.88;57.86
70730;BME280;58315;53.336;55.932;2023-03-04T01:09:18;99104.22;;;1.86;57.92
70730;BME280;58315;53.336;55.932;2023-03-04T01:11:44;99109.25;;;1.89;58.03
70730;BME280;58315;53.336;55.932;2023-03-04T01:14:10;99107.69;;;1.87;58.47
70730;BME280;58315;53.336;55.932;2023-03-04T01:16:36;99109.72;;;1.82;59.10
70730;BME280;58315;53.336;55.932;2023-03-04T01:19:02;99112.31;;;1.82;59.20
70730;BME280;58315;53.336;55.932;2023-03-04T01:21:29;99108.06;;;1.81;59.51
70730;BME280;58315;53.336;55.932;2023-03-04T01:23:55;99105.44;;;1.81;59.32
70730;BME280;58315;53.336;55.932;2023-03-04T01:26:21;99103.13;;;1.76;59.49
70730;BME280;58315;53.336;55.932;2023-03-04T01:28:47;99102.56;;;1.71;59.47
70730;BME280;58315;53.336;55.932;2023-03-04T01:31:13;99108.34;;;1.62;60.37
70730;BME280;58315;53.336;55.932;2023-03-04T01:33:38;99106.66;;;1.61;60.49
70730;BME280;58315;53.336;55.932;2023-03-04T01:36:05;99096.34;;;1.59;60.50
70730;BME280;58315;53.336;55.932;2023-03-04T01:38:31;99108.72;;;1.56;61.14
70730;BME280;58315;53.336;55.932;2023-03-04T01:40:57;99104.25;;;1.58;61.12
70730;BME280;58315;53.336;55.932;2023-03-04T01:43:25;99101.66;;;1.58;61.32
70730;BME280;58315;53.336;55.932;2023-03-04T01:45:53;99103.69;;;1.53;61.87
70730;BME280;58315;53.336;55.932;2023-03-04T01:48:24;99099.50;;;1.64;61.63
70730;BME280;58315;53.336;55.932;2023-03-04T01:50:50;99103.16;;;1.62;61.65
70730;BME280;58315;53.336;55.932;2023-03-04T01:53:20;99103.63;;;1.68;61.76
70730;BME280;58315;53.336;55.932;2023-03-04T01:55:47;99110.56;;;1.68;61.68
70730;BME280;58315;53.336;55.932;2023-03-04T01:58:13;99109.47;;;1.72;61.88
70730;BME280;58315;53.336;55.932;2023-03-04T02:00:40;99105.09;;;1.73;61.81
70730;BME280;58315;53.336;55.932;2023-03-04T02:03:09;99103.50;;;1.84;61.42
70730;BME280;58315;53.336;55.932;2023-03-04T02:05:37;99104.59;;;1.95;61.55
70730;BME280;58315;53.336;55.932;2023-03-04T02:08:04;99101.44;;;1.89;61.65
70730;BME280;58315;53.336;55.932;2023-03-04T02:10:31;99103.56;;;1.83;61.57
70730;BME280;58315;53.336;55.932;2023-03-04T02:12:58;99102.03;;;1.66;62.16
70730;BME280;58315;53.336;55.932;2023-03-04T02:15:25;99086.41;;;1.52;63.31
70730;BME280;58315;53.336;55.932;2023-03-04T02:17:51;99091.91;;;1.47;63.20
70730;BME280;58315;53.336;55.932;2023-03-04T02:20:40;99082.31;;;1.62;63.26
70730;BME280;58315;53.336;55.932;2023-03-04T02:23:17;99088.06;;;1.53;62.61
70730;BME280;58315;53.336;55.932;2023-03-04T02:26:13;99084.81;;;1.63;62.94
70730;BME280;58315;53.336;55.932;2023-03-04T02:28:39;99085.81;;;1.61;62.43
70730;BME280;58315;53.336;55.932;2023-03-04T02:31:05;99100.19;;;1.54;62.67
70730;BME280;58315;53.336;55.932;2023-03-04T02:33:31;99094.56;;;1.60;62.39
70730;BME280;58315;53.336;55.932;2023-03-04T02:35:58;99099.50;;;1.64;62.51
70730;BME280;58315;53.336;55.932;2023-03-04T02:38:25;99088.34;;;1.62;62.08
70730;BME280;58315;53.336;55.932;2023-03-04T02:40:53;99097.75;;;1.65;62.38
70730;BME280;58315;53.336;55.932;2023-03-04T02:43:20;99103.31;;;1.59;62.22
70730;BME280;58315;53.336;55.932;2023-03-04T02:45:49;99102.22;;;1.63;62.23
70730;BME280;58315;53.336;55.932;2023-03-04T02:48:20;99102.03;;;1.52;62.63
70730;BME280;58315;53.336;55.932;2023-03-04T02:50:47;99096.44;;;1.58;62.77
70730;BME280;58315;53.336;55.932;2023-03-04T02:53:15;99095.16;;;1.51;62.82
70730;BME280;58315;53.336;55.932;2023-03-04T02:55:41;99102.31;;;1.47;62.80
70730;BME280;58315;53.336;55.932;2023-03-04T02:58:10;99106.22;;;1.54;62.79
70730;BME280;58315;53.336;55.932;2023-03-04T03:00:36;99107.31;;;1.64;62.58
70730;BME280;58315;53.336;55.932;2023-03-04T03:03:04;99103.50;;;1.56;62.66
70730;BME280;58315;53.336;55.932;2023-03-04T03:05:34;99101.66;;;1.58;63.05
70730;BME280;58315;53.336;55.932;2023-03-04T03:08:01;99100.44;;;1.49;62.85
70730;BME280;58315;53.336;55.932;2023-03-04T03:10:27;99100.72;;;1.59;62.93
70730;BME280;58315;53.336;55.932;2023-03-04T03:12:54;99115.81;;;1.54;62.90
70730;BME280;58315;53.336;55.932;2023-03-04T03:15:20;99107.78;;;1.42;62.77
70730;BME280;58315;53.336;55.932;2023-03-04T03:17:47;99106.28;;;1.53;62.65
70730;BME280;58315;53.336;55.932;2023-03-04T03:20:14;99109.84;;;1.52;63.13
70730;BME280;58315;53.336;55.932;2023-03-04T03:22:41;99116.53;;;1.56;62.89
70730;BME280;58315;53.336;55.932;2023-03-04T03:25:10;99115.03;;;1.66;62.56
70730;BME280;58315;53.336;55.932;2023-03-04T03:27:37;99117.28;;;1.58;62.29
70730;BME280;58315;53.336;55.932;2023-03-04T03:30:04;99115.97;;;1.65;62.45
70730;BME280;58315;53.336;55.932;2023-03-04T03:32:30;99122.75;;;1.67;62.38
70730;BME280;58315;53.336;55.932;2023-03-04T03:34:59;99125.16;;;1.85;61.98
70730;BME280;58315;53.336;55.932;2023-03-04T03:37:25;99125.34;;;1.96;61.49
70730;BME280;58315;53.336;55.932;2023-03-04T03:39:51;99125.03;;;2.01;61.26
70730;BME280;58315;53.336;55.932;2023-03-04T03:42:17;99124.47;;;2.10;61.22
70730;BME280;58315;53.336;55.932;2023-03-04T03:44:43;99122.06;;;2.07;61.00
70730;BME280;58315;53.336;55.932;2023-03-04T03:47:09;99123.91;;;2.05;60.80
70730;BME280;58315;53.336;55.932;2023-03-04T03:49:35;99129.06;;;2.06;60.77
70730;BME280;58315;53.336;55.932;2023-03-04T03:52:01;99126.25;;;2.09;60.71
70730;BME280;58315;53.336;55.932;2023-03-04T03:54:27;99140.19;;;2.23;60.44
70730;BME280;58315;53.336;55.932;2023-03-04T03:56:53;99141.19;;;2.34;60.00
70730;BME280;58315;53.336;55.932;2023-03-04T03:59:19;99139.81;;;2.14;60.21
70730;BME280;58315;53.336;55.932;2023-03-04T04:01:45;99143.44;;;2.12;60.21
70730;BME280;58315;53.336;55.932;2023-03-04T04:04:11;99147.97;;;1.96;60.23
70730;BME280;58315;53.336;55.932;2023-03-04T04:06:37;99145.19;;;1.84;60.67
70730;BME280;58315;53.336;55.932;2023-03-04T04:09:03;99151.84;;;2.03;60.58
70730;BME280;58315;53.336;55.932;2023-03-04T04:11:29;99147.84;;;1.83;60.73
70730;BME280;58315;53.336;55.932;2023-03-04T04:13:55;99156.53;;;1.83;60.95
70730;BME280;58315;53.336;55.932;2023-03-04T04:16:21;99152.41;;;1.93;60.66
70730;BME280;58315;53.336;55.932;2023-03-04T04:18:46;99155.41;;;1.87;60.88
70730;BME280;58315;53.336;55.932;2023-03-04T04:21:13;99161.19;;;1.78;61.49
70730;BME280;58315;53.336;55.932;2023-03-04T04:23:39;99160.44;;;1.76;61.00
70730;BME280;58315;53.336;55.932;2023-03-04T04:26:05;99156.31;;;2.01;60.92
70730;BME280;58315;53.336;55.932;2023-03-04T04:28:31;99160.38;;;2.19;60.46
70730;BME280;58315;53.336;55.932;2023-03-04T04:30:57;99146.31;;;2.36;60.15
70730;BME280;58315;53.336;55.932;2023-03-04T04:33:24;99148.56;;;2.55;59.65
70730;BME280;58315;53.336;55.932;2023-03-04T04:35:50;99139.47;;;2.48;59.51
70730;BME280;58315;53.336;55.932;2023-03-04T04:38:16;99146.16;;;2.52;59.02
70730;BME280;58315;53.336;55.932;2023-03-04T04:40:42;99130.16;;;2.44;58.86
70730;BME280;58315;53.336;55.932;2023-03-04T04:43:08;99125.22;;;2.53;59.30
70730;BME280;58315;53.336;55.932;2023-03-04T04:45:34;99132.44;;;2.35;59.41
70730;BME280;58315;53.336;55.932;2023-03-04T04:48:00;99140.94;;;2.52;59.53
70730;BME280;58315;53.336;55.932;2023-03-04T04:50:26;99136.56;;;2.52;59.18
70730;BME280;58315;53.336;55.932;2023-03-04T04:52:52;99142.22;;;2.59;59.19
70730;BME280;58315;53.336;55.932;2023-03-04T04:55:18;99145.50;;;2.48;58.99
70730;BME280;58315;53.336;55.932;2023-03-04T04:57:44;99153.63;;;2.44;59.02
70730;BME280;58315;53.336;55.932;2023-03-04T05:00:10;99151.47;;;2.23;60.00
70730;BME280;58315;53.336;55.932;2023-03-04T05:02:36;99155.44;;;2.29;59.94
70730;BME280;58315;53.336;55.932;2023-03-04T05:05:04;99155.47;;;2.14;60.31
70730;BME280;58315;53.336;55.932;2023-03-04T05:07:30;99160.31;;;2.21;60.22
70730;BME280;58315;53.336;55.932;2023-03-04T05:09:56;99160.19;;;2.22;60.20
70730;BME280;58315;53.336;55.932;2023-03-04T05:12:22;99150.53;;;2.10;60.54
70730;BME280;58315;53.336;55.932;2023-03-04T05:14:48;99155.56;;;2.13;60.51
70730;BME280;58315;53.336;55.932;2023-03-04T05:17:14;99155.75;;;2.10;60.69
70730;BME280;58315;53.336;55.932;2023-03-04T05:19:41;99146.34;;;2.22;60.82
70730;BME280;58315;53.336;55.932;2023-03-04T05:22:07;99143.50;;;2.39;60.11
70730;BME280;58315;53.336;55.932;2023-03-04T05:24:33;99142.25;;;2.45;59.83
70730;BME280;58315;53.336;55.932;2023-03-04T05:27:01;99134.25;;;2.48;60.23
70730;BME280;58315;53.336;55.932;2023-03-04T05:29:27;99131.06;;;2.57;59.94
70730;BME280;58315;53.336;55.932;2023-03-04T05:31:53;99120.97;;;2.65;59.80
70730;BME280;58315;53.336;55.932;2023-03-04T05:34:19;99123.84;;;2.87;59.26
70730;BME280;58315;53.336;55.932;2023-03-04T05:36:45;99129.19;;;2.99;58.96
70730;BME280;58315;53.336;55.932;2023-03-04T05:39:11;99131.06;;;2.97;59.44
70730;BME280;58315;53.336;55.932;2023-03-04T05:41:37;99125.16;;;2.80;59.25
70730;BME280;58315;53.336;55.932;2023-03-04T05:44:03;99124.97;;;2.83;59.45
70730;BME280;58315;53.336;55.932;2023-03-04T05:46:29;99121.84;;;2.91;59.10
70730;BME280;58315;53.336;55.932;2023-03-04T05:48:55;99121.66;;;2.94;58.62
70730;BME280;58315;53.336;55.932;2023-03-04T05:51:21;99126.09;;;3.19;58.28
70730;BME280;58315;53.336;55.932;2023-03-04T05:53:48;99131.63;;;3.27;58.35
70730;BME280;58315;53.336;55.932;2023-03-04T05:56:16;99133.19;;;3.30;58.33
70730;BME280;58315;53.336;55.932;2023-03-04T05:58:43;99147.19;;;3.42;57.75
70730;BME280;58315;53.336;55.932;2023-03-04T06:01:09;99136.44;;;3.46;57.72
70730;BME280;58315;53.336;55.932;2023-03-04T06:03:36;99139.03;;;3.46;57.41
70730;BME280;58315;53.336;55.932;2023-03-04T06:06:02;99134.25;;;3.53;57.74
70730;BME280;58315;53.336;55.932;2023-03-04T06:08:28;99131.31;;;3.45;57.44
70730;BME280;58315;53.336;55.932;2023-03-04T06:10:55;99130.88;;;3.51;57.73
70730;BME280;58315;53.336;55.932;2023-03-04T06:13:22;99138.84;;;3.49;57.87
70730;BME280;58315;53.336;55.932;2023-03-04T06:15:53;99144.06;;;3.62;57.49
70730;BME280;58315;53.336;55.932;2023-03-04T06:18:19;99144.47;;;3.43;57.99
70730;BME280;58315;53.336;55.932;2023-03-04T06:20:45;99142.59;;;3.32;58.15
70730;BME280;58315;53.336;55.932;2023-03-04T06:23:11;99141.72;;;3.06;58.76
70730;BME280;58315;53.336;55.932;2023-03-04T06:25:37;99138.03;;;2.96;59.30
70730;BME280;58315;53.336;55.932;2023-03-04T06:28:03;99137.88;;;3.12;59.31
70730;BME280;58315;53.336;55.932;2023-03-04T06:30:29;99134.88;;;3.18;58.89
70730;BME280;58315;53.336;55.932;2023-03-04T06:32:55;99137.59;;;3.29;58.41
70730;BME280;58315;53.336;55.932;2023-03-04T06:35:21;99142.34;;;3.10;58.43
70730;BME280;58315;53.336;55.932;2023-03-04T06:37:47;99134.72;;;2.94;59.21
70730;BME280;58315;53.336;55.932;2023-03-04T06:40:13;99136.56;;;2.92;59.12
70730;BME280;58315;53.336;55.932;2023-03-04T06:42:39;99130.63;;;3.03;59.27
70730;BME280;58315;53.336;55.932;2023-03-04T06:45:06;99127.84;;;3.06;59.16
70730;BME280;58315;53.336;55.932;2023-03-04T06:47:32;99121.03;;;2.90;59.23
70730;BME280;58315;53.336;55.932;2023-03-04T06:49:58;99133.38;;;3.14;58.98
70730;BME280;58315;53.336;55.932;2023-03-04T06:52:24;99124.41;;;3.31;58.47
70730;BME280;58315;53.336;55.932;2023-03-04T06:54:50;99123.69;;;3.54;57.57
70730;BME280;58315;53.336;55.932;2023-03-04T06:57:16;99120.84;;;3.57;58.16
70730;BME280;58315;53.336;55.932;2023-03-04T06:59:42;99124.41;;;3.56;57.61
70730;BME280;58315;53.336;55.932;2023-03-04T07:02:11;99132.78;;;3.74;57.53
70730;BME280;58315;53.336;55.932;2023-03-04T07:04:38;99128.16;;;3.78;57.15
70730;BME280;58315;53.336;55.932;2023-03-04T07:07:04;99117.91;;;3.75;57.08
70730;BME280;58315;53.336;55.932;2023-03-04T07:09:30;99117.38;;;3.82;57.03
70730;BME280;58315;53.336;55.932;2023-03-04T07:11:56;99115.63;;;3.70;57.15
70730;BME280;58315;53.336;55.932;2023-03-04T07:14:22;99118.75;;;3.75;57.52
70730;BME280;58315;53.336;55.932;2023-03-04T07:16:48;99122.53;;;3.71;57.20
70730;BME280;58315;53.336;55.932;2023-03-04T07:19:14;99126.91;;;3.58;57.21
70730;BME280;58315;53.336;55.932;2023-03-04T07:21:40;99112.06;;;3.71;57.15
70730;BME280;58315;53.336;55.932;2023-03-04T07:24:06;99116.22;;;3.86;56.71
70730;BME280;58315;53.336;55.932;2023-03-04T07:26:32;99111.88;;;3.74;56.92
70730;BME280;58315;53.336;55.932;2023-03-04T07:28:59;99111.66;;;3.77;56.71
70730;BME280;58315;53.336;55.932;2023-03-04T07:31:28;99110.41;;;3.70;56.95
70730;BME280;58315;53.336;55.932;2023-03-04T07:33:56;99118.03;;;3.73;57.17
70730;BME280;58315;53.336;55.932;2023-03-04T07:36:23;99123.88;;;3.64;56.77
70730;BME280;58315;53.336;55.932;2023-03-04T07:38:49;99116.25;;;3.61;57.17
70730;BME280;58315;53.336;55.932;2023-03-04T07:41:16;99116.47;;;3.58;57.31
70730;BME280;58315;53.336;55.932;2023-03-04T07:43:43;99117.09;;;3.61;57.48
70730;BME280;58315;53.336;55.932;2023-03-04T07:46:09;99118.34;;;3.81;56.89
70730;BME280;58315;53.336;55.932;2023-03-04T07:48:36;99120.00;;;3.82;56.69
70730;BME280;58315;53.336;55.932;2023-03-04T07:51:12;99114.84;;;3.94;56.54
70730;BME280;58315;53.336;55.932;2023-03-04T07:53:40;99120.13;;;4.18;56.45
70730;BME280;58315;53.336;55.932;2023-03-04T07:56:12;99122.00;;;4.28;55.58
70730;BME280;58315;53.336;55.932;2023-03-04T07:58:38;99128.72;;;4.44;55.14
70730;BME280;58315;53.336;55.932;2023-03-04T08:01:12;99121.84;;;4.43;55.30
70730;BME280;58315;53.336;55.932;2023-03-04T08:03:39;99118.63;;;4.26;55.89
70730;BME280;58315;53.336;55.932;2023-03-04T08:06:08;99113.69;;;4.34;55.10
70730;BME280;58315;53.336;55.932;2023-03-04T08:08:35;99110.75;;;4.63;55.32
70730;BME280;58315;53.336;55.932;2023-03-04T08:11:06;99122.22;;;4.73;55.19
70730;BME280;58315;53.336;55.932;2023-03-04T08:13:31;99114.22;;;4.75;54.51
70730;BME280;58315;53.336;55.932;2023-03-04T08:15:57;99110.59;;;4.53;55.29
70730;BME280;58315;53.336;55.932;2023-03-04T08:18:24;99120.50;;;4.61;55.43
70730;BME280;58315;53.336;55.932;2023-03-04T08:20:50;99119.38;;;4.52;54.96
70730;BME280;58315;53.336;55.932;2023-03-04T08:23:17;99115.81;;;4.53;54.94
70730;BME280;58315;53.336;55.932;2023-03-04T08:25:43;99109.72;;;4.53;54.91
70730;BME280;58315;53.336;55.932;2023-03-04T08:28:10;99113.25;;;4.41;55.43
70730;BME280;58315;53.336;55.932;2023-03-04T08:30:39;99107.13;;;4.53;55.82
70730;BME280;58315;53.336;55.932;2023-03-04T08:33:05;99111.69;;;4.62;55.75
70730;BME280;58315;53.336;55.932;2023-03-04T08:35:32;99101.03;;;4.76;55.43
70730;BME280;58315;53.336;55.932;2023-03-04T08:37:58;99102.94;;;4.74;54.79
70730;BME280;58315;53.336;55.932;2023-03-04T08:40:24;99101.81;;;5.01;55.04
70730;BME280;58315;53.336;55.932;2023-03-04T08:42:52;99097.91;;;5.06;55.37
70730;BME280;58315;53.336;55.932;2023-03-04T08:45:17;99091.03;;;5.17;54.85
70730;BME280;58315;53.336;55.932;2023-03-04T08:47:43;99082.97;;;5.20;54.93
70730;BME280;58315;53.336;55.932;2023-03-04T08:50:10;99079.75;;;5.27;54.68
70730;BME280;58315;53.336;55.932;2023-03-04T08:52:36;99090.59;;;5.34;54.74
70730;BME280;58315;53.336;55.932;2023-03-04T08:55:02;99082.75;;;5.34;54.54
70730;BME280;58315;53.336;55.932;2023-03-04T08:57:30;99079.59;;;5.06;55.17
70730;BME280;58315;53.336;55.932;2023-03-04T08:59:55;99080.41;;;5.07;54.70
70730;BME280;58315;53.336;55.932;2023-03-04T09:02:21;99070.53;;;4.99;55.25
70730;BME280;58315;53.336;55.932;2023-03-04T09:04:47;99080.63;;;4.93;54.96
70730;BME280;58315;53.336;55.932;2023-03-04T09:07:13;99077.41;;;4.89;55.64
70730;BME280;58315;53.336;55.932;2023-03-04T09:09:39;99075.94;;;4.74;55.24
70730;BME280;58315;53.336;55.932;2023-03-04T09:12:06;99063.91;;;4.71;55.54
70730;BME280;58315;53.336;55.932;2023-03-04T09:14:32;99060.41;;;4.95;55.64
70730;BME280;58315;53.336;55.932;2023-03-04T09:17:02;99063.88;;;5.06;54.99
70730;BME280;58315;53.336;55.932;2023-03-04T09:19:32;99051.25;;;5.12;53.99
70730;BME280;58315;53.336;55.932;2023-03-04T09:21:58;99060.22;;;5.31;54.14
70730;BME280;58315;53.336;55.932;2023-03-04T09:24:25;99044.75;;;5.28;54.09
70730;BME280;58315;53.336;55.932;2023-03-04T09:26:52;99050.09;;;5.61;53.35
70730;BME280;58315;53.336;55.932;2023-03-04T09:29:20;99050.19;;;5.70;52.86
70730;BME280;58315;53.336;55.932;2023-03-04T09:31:46;99048.78;;;5.55;53.32
70730;BME280;58315;53.336;55.932;2023-03-04T09:34:12;99046.88;;;5.79;52.41
70730;BME280;58315;53.336;55.932;2023-03-04T09:36:38;99040.31;;;5.74;52.61
70730;BME280;58315;53.336;55.932;2023-03-04T09:39:04;99031.13;;;5.79;52.78
70730;BME280;58315;53.336;55.932;2023-03-04T09:41:41;99030.75;;;5.84;52.76
70730;BME280;58315;53.336;55.932;2023-03-04T09:44:37;99024.94;;;5.80;52.66
70730;BME280;58315;53.336;55.932;2023-03-04T09:47:10;99019.34;;;5.63;52.67
70730;BME280;58315;53.336;55.932;2023-03-04T09:49:43;99029.00;;;5.62;52.51
70730;BME280;58315;53.336;55.932;2023-03-04T09:52:49;99030.44;;;5.66;52.60
70730;BME280;58315;53.336;55.932;2023-03-04T09:55:37;99041.41;;;5.49;52.79
70730;BME280;58315;53.336;55.932;2023-03-04T10:01:10;99036.66;;;5.43;53.21
70730;BME280;58315;53.336;55.932;2023-03-04T10:04:17;99039.84;;;5.13;53.16
70730;BME280;58315;53.336;55.932;2023-03-04T10:06:46;99039.09;;;4.99;54.35
70730;BME280;58315;53.336;55.932;2023-03-04T10:09:23;99038.69;;;4.81;54.31
70730;BME280;58315;53.336;55.932;2023-03-04T10:14:48;99033.03;;;4.88;54.84
70730;BME280;58315;53.336;55.932;2023-03-04T10:17:23;99026.13;;;4.98;54.09
70730;BME280;58315;53.336;55.932;2023-03-04T10:20:03;99017.34;;;5.21;53.80
70730;BME280;58315;53.336;55.932;2023-03-04T10:22:38;99013.31;;;5.28;53.87
70730;BME280;58315;53.336;55.932;2023-03-04T10:25:30;99012.84;;;5.35;53.08
70730;BME280;58315;53.336;55.932;2023-03-04T10:28:03;99014.34;;;5.48;52.72
70730;BME280;58315;53.336;55.932;2023-03-04T10:33:20;99004.00;;;5.13;53.32
70730;BME280;58315;53.336;55.932;2023-03-04T10:35:52;98991.97;;;5.22;52.92
70730;BME280;58315;53.336;55.932;2023-03-04T10:38:21;98998.53;;;5.27;53.41
70730;BME280;58315;53.336;55.932;2023-03-04T10:40:47;98995.94;;;5.27;52.66
70730;BME280;58315;53.336;55.932;2023-03-04T10:43:20;98989.22;;;5.01;52.87
70730;BME280;58315;53.336;55.932;2023-03-04T10:45:47;98978.63;;;4.80;53.88
70730;BME280;58315;53.336;55.932;2023-03-04T10:48:27;98983.16;;;4.89;53.70
70730;BME280;58315;53.336;55.932;2023-03-04T10:51:10;98980.53;;;5.12;53.32
70730;BME280;58315;53.336;55.932;2023-03-04T10:53:39;98988.13;;;4.81;53.21
70730;BME280;58315;53.336;55.932;2023-03-04T11:02:10;98978.00;;;4.65;53.78
70730;BME280;58315;53.336;55.932;2023-03-04T11:04:38;98983.00;;;4.68;54.16
70730;BME280;58315;53.336;55.932;2023-03-04T11:07:10;98983.13;;;4.78;53.92
70730;BME280;58315;53.336;55.932;2023-03-04T11:09:37;98991.41;;;4.60;54.39
70730;BME280;58315;53.336;55.932;2023-03-04T11:12:11;98986.88;;;4.51;54.27
70730;BME280;58315;53.336;55.932;2023-03-04T11:14:40;98983.41;;;4.40;55.23
70730;BME280;58315;53.336;55.932;2023-03-04T11:17:24;98985.69;;;4.20;55.87
70730;BME280;58315;53.336;55.932;2023-03-04T11:19:58;98992.81;;;3.94;57.24
70730;BME280;58315;53.336;55.932;2023-03-04T11:22:29;98986.38;;;3.87;57.25
70730;BME280;58315;53.336;55.932;2023-03-04T11:25:01;98989.50;;;3.92;57.57
70730;BME280;58315;53.336;55.932;2023-03-04T11:27:45;98973.09;;;4.14;57.51
70730;BME280;58315;53.336;55.932;2023-03-04T11:30:28;98967.28;;;3.98;58.37
70730;BME280;58315;53.336;55.932;2023-03-04T11:33:03;98975.44;;;3.82;58.22
70730;BME280;58315;53.336;55.932;2023-03-04T11:38:43;98959.13;;;4.02;58.06
70730;BME280;58315;53.336;55.932;2023-03-04T11:41:37;98955.97;;;4.10;58.61
70730;BME280;58315;53.336;55.932;2023-03-04T11:44:05;98954.66;;;4.16;58.48
70730;BME280;58315;53.336;55.932;2023-03-04T11:46:51;98942.72;;;4.00;58.28
70730;BME280;58315;53.336;55.932;2023-03-04T12:01:14;98923.44;;;4.25;58.26
70730;BME280;58315;53.336;55.932;2023-03-04T12:09:14;98913.13;;;4.00;58.91
70730;BME280;58315;53.336;55.932;2023-03-04T12:21:58;98903.50;;;3.76;59.27
70730;BME280;58315;53.336;55.932;2023-03-04T12:35:40;98881.78;;;3.76;59.68
70730;BME280;58315;53.336;55.932;2023-03-04T12:54:42;98871.34;;;3.28;60.28
70730;BME280;58315;53.336;55.932;2023-03-04T12:57:18;98863.09;;;3.21;60.72
70730;BME280;58315;53.336;55.932;2023-03-04T13:10:49;98861.84;;;2.77;61.75
70730;BME280;58315;53.336;55.932;2023-03-04T13:13:37;98856.34;;;2.82;61.68
70730;BME280;58315;53.336;55.932;2023-03-04T13:18:54;98861.75;;;2.79;61.43
70730;BME280;58315;53.336;55.932;2023-03-04T13:21:26;98855.91;;;2.75;61.73
70730;BME280;58315;53.336;55.932;2023-03-04T13:23:52;98850.91;;;2.72;61.70
70730;BME280;58315;53.336;55.932;2023-03-04T13:26:37;98848.91;;;2.76;61.94
70730;BME280;58315;53.336;55.932;2023-03-04T13:32:04;98848.53;;;2.56;62.16
70730;BME280;58315;53.336;55.932;2023-03-04T13:34:44;98845.69;;;2.59;62.53
70730;BME280;58315;53.336;55.932;2023-03-04T13:37:37;98851.13;;;2.44;62.70
70730;BME280;58315;53.336;55.932;2023-03-04T13:42:51;98846.66;;;2.46;62.99
70730;BME280;58315;53.336;55.932;2023-03-04T13:45:35;98849.06;;;2.49;62.82
70730;BME280;58315;53.336;55.932;2023-03-04T13:48:04;98846.56;;;2.34;62.85
70730;BME280;58315;53.336;55.932;2023-03-04T13:50:39;98853.75;;;2.44;63.19
70730;BME280;58315;53.336;55.932;2023-03-04T13:56:19;98852.81;;;2.45;63.11
70730;BME280;58315;53.336;55.932;2023-03-04T13:58:47;98855.72;;;2.40;63.37
70730;BME280;58315;53.336;55.932;2023-03-04T14:01:26;98848.44;;;2.20;63.62
70730;BME280;58315;53.336;55.932;2023-03-04T14:03:53;98852.78;;;2.19;63.38
70730;BME280;58315;53.336;55.932;2023-03-04T14:06:22;98852.91;;;2.30;63.45
70730;BME280;58315;53.336;55.932;2023-03-04T14:08:50;98848.22;;;2.35;63.88
70730;BME280;58315;53.336;55.932;2023-03-04T14:11:34;98846.03;;;2.55;63.33
70730;BME280;58315;53.336;55.932;2023-03-04T14:14:05;98847.78;;;2.54;62.85
70730;BME280;58315;53.336;55.932;2023-03-04T14:16:37;98843.53;;;2.53;62.66
70730;BME280;58315;53.336;55.932;2023-03-04T14:19:05;98841.00;;;2.52;63.13
70730;BME280;58315;53.336;55.932;2023-03-04T14:21:33;98849.91;;;2.49;62.90
70730;BME280;58315;53.336;55.932;2023-03-04T14:24:07;98849.47;;;2.55;62.54
70730;BME280;58315;53.336;55.932;2023-03-04T14:26:33;98843.41;;;2.55;62.38
70730;BME280;58315;53.336;55.932;2023-03-04T14:28:59;98843.50;;;2.66;62.38
70730;BME280;58315;53.336;55.932;2023-03-04T14:31:29;98845.91;;;2.69;62.13
70730;BME280;58315;53.336;55.932;2023-03-04T14:33:59;98838.59;;;2.61;61.86
70730;BME280;58315;53.336;55.932;2023-03-04T14:36:29;98830.47;;;2.66;62.00
70730;BME280;58315;53.336;55.932;2023-03-04T14:38:58;98833.81;;;2.68;61.86
70730;BME280;58315;53.336;55.932;2023-03-04T14:44:07;98827.97;;;2.64;61.83
70730;BME280;58315;53.336;55.932;2023-03-04T14:46:38;98827.13;;;2.51;61.94